sensor_id;sensor_type;location;lat;lon;timestamp;temperature;humidity
53962;DHT22;39868;53.398;6.564;2023-04-01T00:01:13;13.00;83.00
53962;DHT22;39868;53.398;6.564;2023-04-01T00:03:40;13.10;83.10
53962;DHT22;39868;53.398;6.564;2023-04-01T00:06:09;13.00;83.00
53962;DHT22;39868;53.398;6.564;2023-04-01T00:08:36;13.00;83.10
53962;DHT22;39868;53.398;6.564;2023-04-01T00:11:03;13.00;83.10
53962;DHT22;39868;53.398;6.564;2023-04-01T00:13:30;12.90;83.10
53962;DHT22;39868;53.398;6.564;2023-04-01T00:15:57;13.00;83.20
53962;DHT22;39868;53.398;6.564;2023-04-01T00:18:26;12.90;83.20
53962;DHT22;39868;53.398;6.564;2023-04-01T00:20:53;13.00;83.20
53962;DHT22;39868;53.398;6.564;2023-04-01T00:23:20;13.00;83.20
53962;DHT22;39868;53.398;6.564;2023-04-01T00:25:47;13.00;83.30
53962;DHT22;39868;53.398;6.564;2023-04-01T00:28:16;13.00;83.30
53962;DHT22;39868;53.398;6.564;2023-04-01T00:30:43;13.00;83.30
53962;DHT22;39868;53.398;6.564;2023-04-01T00:33:10;13.00;83.30
53962;DHT22;39868;53.398;6.564;2023-04-01T00:35:38;13.00;83.40
53962;DHT22;39868;53.398;6.564;2023-04-01T00:38:05;13.00;83.40
53962;DHT22;39868;53.398;6.564;2023-04-01T00:40:35;13.00;83.40
53962;DHT22;39868;53.398;6.564;2023-04-01T00:43:03;13.00;83.50
53962;DHT22;39868;53.398;6.564;2023-04-01T00:45:34;13.00;83.50
53962;DHT22;39868;53.398;6.564;2023-04-01T00:48:04;13.00;83.50
53962;DHT22;39868;53.398;6.564;2023-04-01T00:50:33;13.00;83.60
53962;DHT22;39868;53.398;6.564;2023-04-01T00:53:01;13.00;83.60
53962;DHT22;39868;53.398;6.564;2023-04-01T00:55:29;12.90;83.60
53962;DHT22;39868;53.398;6.564;2023-04-01T00:57:58;12.90;83.60
53962;DHT22;39868;53.398;6.564;2023-04-01T01:00:25;12.90;83.60
53962;DHT22;39868;53.398;6.564;2023-04-01T01:02:53;13.00;83.60
53962;DHT22;39868;53.398;6.564;2023-04-01T01:05:22;12.90;83.60
53962;DHT22;39868;53.398;6.564;2023-04-01T01:07:54;12.90;83.60
53962;DHT22;39868;53.398;6.564;2023-04-01T01:10:24;13.00;83.60
53962;DHT22;39868;53.398;6.564;2023-04-01T01:15:46;13.00;83.60
53962;DHT22;39868;53.398;6.564;2023-04-01T01:36:48;13.00;83.70
53962;DHT22;39868;53.398;6.564;2023-04-01T01:39:17;13.00;83.70
53962;DHT22;39868;53.398;6.564;2023-04-01T01:41:45;13.00;83.70
53962;DHT22;39868;53.398;6.564;2023-04-01T01:44:16;13.00;83.70
53962;DHT22;39868;53.398;6.564;2023-04-01T01:46:43;13.00;83.70
53962;DHT22;39868;53.398;6.564;2023-04-01T01:49:12;13.00;84.30
53962;DHT22;39868;53.398;6.564;2023-04-01T01:51:40;13.00;83.70
53962;DHT22;39868;53.398;6.564;2023-04-01T01:54:21;13.00;83.70
53962;DHT22;39868;53.398;6.564;2023-04-01T01:56:49;13.00;83.70
53962;DHT22;39868;53.398;6.564;2023-04-01T01:59:19;13.00;83.70
53962;DHT22;39868;53.398;6.564;2023-04-01T02:01:49;13.00;83.70
53962;DHT22;39868;53.398;6.564;2023-04-01T02:04:17;13.00;83.70
53962;DHT22;39868;53.398;6.564;2023-04-01T02:06:51;13.00;83.70
53962;DHT22;39868;53.398;6.564;2023-04-01T02:09:19;13.00;83.80
53962;DHT22;39868;53.398;6.564;2023-04-01T02:11:48;13.00;83.70
53962;DHT22;39868;53.398;6.564;2023-04-01T02:14:17;13.00;83.80
53962;DHT22;39868;53.398;6.564;2023-04-01T02:16:51;13.00;83.70
53962;DHT22;39868;53.398;6.564;2023-04-01T02:19:21;13.00;83.70
53962;DHT22;39868;53.398;6.564;2023-04-01T02:21:52;13.10;83.80
53962;DHT22;39868;53.398;6.564;2023-04-01T02:24:22;13.00;83.70
53962;DHT22;39868;53.398;6.564;2023-04-01T02:26:51;13.00;83.70
53962;DHT22;39868;53.398;6.564;2023-04-01T02:29:22;13.00;83.70
53962;DHT22;39868;53.398;6.564;2023-04-01T02:31:50;13.00;83.70
53962;DHT22;39868;53.398;6.564;2023-04-01T02:34:19;13.10;83.80
53962;DHT22;39868;53.398;6.564;2023-04-01T02:36:47;13.00;83.70
53962;DHT22;39868;53.398;6.564;2023-04-01T02:39:14;13.00;83.80
53962;DHT22;39868;53.398;6.564;2023-04-01T02:41:43;13.10;83.80
53962;DHT22;39868;53.398;6.564;2023-04-01T02:44:11;13.00;83.80
53962;DHT22;39868;53.398;6.564;2023-04-01T02:46:38;13.10;83.90
53962;DHT22;39868;53.398;6.564;2023-04-01T02:49:06;13.00;83.80
53962;DHT22;39868;53.398;6.564;2023-04-01T02:51:34;13.10;83.90
53962;DHT22;39868;53.398;6.564;2023-04-01T02:54:01;13.10;83.90
53962;DHT22;39868;53.398;6.564;2023-04-01T02:56:29;13.10;83.90
53962;DHT22;39868;53.398;6.564;2023-04-01T02:58:56;13.10;83.90
53962;DHT22;39868;53.398;6.564;2023-04-01T03:01:23;13.00;83.80
53962;DHT22;39868;53.398;6.564;2023-04-01T03:03:50;13.00;83.80
53962;DHT22;39868;53.398;6.564;2023-04-01T03:06:17;13.00;83.90
53962;DHT22;39868;53.398;6.564;2023-04-01T03:08:45;13.00;83.90
53962;DHT22;39868;53.398;6.564;2023-04-01T03:11:13;13.00;83.90
53962;DHT22;39868;53.398;6.564;2023-04-01T03:13:40;13.00;83.90
53962;DHT22;39868;53.398;6.564;2023-04-01T03:16:07;13.00;83.90
53962;DHT22;39868;53.398;6.564;2023-04-01T03:18:35;13.00;83.90
53962;DHT22;39868;53.398;6.564;2023-04-01T03:21:12;13.10;84.00
53962;DHT22;39868;53.398;6.564;2023-04-01T03:23:39;13.00;84.00
53962;DHT22;39868;53.398;6.564;2023-04-01T03:26:06;13.10;84.00
53962;DHT22;39868;53.398;6.564;2023-04-01T03:28:33;13.00;84.00
53962;DHT22;39868;53.398;6.564;2023-04-01T03:31:01;13.00;84.00
53962;DHT22;39868;53.398;6.564;2023-04-01T03:33:33;13.00;84.00
53962;DHT22;39868;53.398;6.564;2023-04-01T03:36:00;13.00;84.00
53962;DHT22;39868;53.398;6.564;2023-04-01T03:38:27;13.00;84.00
53962;DHT22;39868;53.398;6.564;2023-04-01T03:40:54;13.00;84.00
53962;DHT22;39868;53.398;6.564;2023-04-01T03:43:22;13.00;84.00
53962;DHT22;39868;53.398;6.564;2023-04-01T03:45:49;13.00;84.00
53962;DHT22;39868;53.398;6.564;2023-04-01T03:48:17;13.00;84.00
53962;DHT22;39868;53.398;6.564;2023-04-01T03:50:44;13.00;84.00
53962;DHT22;39868;53.398;6.564;2023-04-01T03:53:12;13.00;84.00
53962;DHT22;39868;53.398;6.564;2023-04-01T03:55:42;13.00;84.10
53962;DHT22;39868;53.398;6.564;2023-04-01T03:58:10;13.00;84.10
53962;DHT22;39868;53.398;6.564;2023-04-01T04:00:38;13.00;84.10
53962;DHT22;39868;53.398;6.564;2023-04-01T04:03:06;13.00;84.10
53962;DHT22;39868;53.398;6.564;2023-04-01T04:05:34;13.00;84.10
53962;DHT22;39868;53.398;6.564;2023-04-01T04:08:02;13.00;84.10
53962;DHT22;39868;53.398;6.564;2023-04-01T04:10:30;13.00;84.10
53962;DHT22;39868;53.398;6.564;2023-04-01T04:12:58;13.00;84.10
53962;DHT22;39868;53.398;6.564;2023-04-01T04:15:29;13.00;84.10
53962;DHT22;39868;53.398;6.564;2023-04-01T04:17:57;13.00;84.20
53962;DHT22;39868;53.398;6.564;2023-04-01T04:20:24;13.00;84.10
53962;DHT22;39868;53.398;6.564;2023-04-01T04:22:51;13.00;84.20
53962;DHT22;39868;53.398;6.564;2023-04-01T04:25:18;13.00;84.10
53962;DHT22;39868;53.398;6.564;2023-04-01T04:27:45;12.90;84.20
53962;DHT22;39868;53.398;6.564;2023-04-01T04:30:14;12.90;84.10
53962;DHT22;39868;53.398;6.564;2023-04-01T04:32:42;12.90;84.20
53962;DHT22;39868;53.398;6.564;2023-04-01T04:35:11;13.00;84.20
53962;DHT22;39868;53.398;6.564;2023-04-01T04:37:39;12.90;84.20
53962;DHT22;39868;53.398;6.564;2023-04-01T04:40:06;12.90;84.20
53962;DHT22;39868;53.398;6.564;2023-04-01T04:42:34;12.90;84.20
53962;DHT22;39868;53.398;6.564;2023-04-01T04:45:06;12.90;84.20
53962;DHT22;39868;53.398;6.564;2023-04-01T04:47:36;12.90;84.20
53962;DHT22;39868;53.398;6.564;2023-04-01T04:50:03;12.90;84.30
53962;DHT22;39868;53.398;6.564;2023-04-01T04:52:31;12.90;84.30
53962;DHT22;39868;53.398;6.564;2023-04-01T04:54:58;12.90;84.30
53962;DHT22;39868;53.398;6.564;2023-04-01T04:57:25;12.80;84.30
53962;DHT22;39868;53.398;6.564;2023-04-01T04:59:54;12.90;84.40
53962;DHT22;39868;53.398;6.564;2023-04-01T05:02:33;12.90;84.40
53962;DHT22;39868;53.398;6.564;2023-04-01T05:05:00;12.80;84.30
53962;DHT22;39868;53.398;6.564;2023-04-01T05:07:27;12.80;84.40
53962;DHT22;39868;53.398;6.564;2023-04-01T05:09:55;12.80;84.40
53962;DHT22;39868;53.398;6.564;2023-04-01T05:12:22;12.80;84.40
53962;DHT22;39868;53.398;6.564;2023-04-01T05:14:56;12.80;84.40
53962;DHT22;39868;53.398;6.564;2023-04-01T05:17:24;12.80;84.50
53962;DHT22;39868;53.398;6.564;2023-04-01T05:19:51;12.80;84.50
53962;DHT22;39868;53.398;6.564;2023-04-01T05:22:19;12.80;84.50
53962;DHT22;39868;53.398;6.564;2023-04-01T05:24:47;12.80;84.50
53962;DHT22;39868;53.398;6.564;2023-04-01T05:27:14;12.80;84.60
53962;DHT22;39868;53.398;6.564;2023-04-01T05:29:42;12.80;84.60
53962;DHT22;39868;53.398;6.564;2023-04-01T05:32:30;12.80;84.60
53962;DHT22;39868;53.398;6.564;2023-04-01T05:34:58;12.80;84.60
53962;DHT22;39868;53.398;6.564;2023-04-01T05:37:25;12.80;84.60
53962;DHT22;39868;53.398;6.564;2023-04-01T05:39:53;12.80;84.70
53962;DHT22;39868;53.398;6.564;2023-04-01T05:42:20;12.80;84.70
53962;DHT22;39868;53.398;6.564;2023-04-01T05:44:47;12.80;84.70
53962;DHT22;39868;53.398;6.564;2023-04-01T05:47:37;12.80;84.70
53962;DHT22;39868;53.398;6.564;2023-04-01T05:50:05;12.90;84.80
53962;DHT22;39868;53.398;6.564;2023-04-01T05:52:32;12.90;84.80
53962;DHT22;39868;53.398;6.564;2023-04-01T05:54:59;12.90;84.80
53962;DHT22;39868;53.398;6.564;2023-04-01T05:57:27;12.90;84.80
53962;DHT22;39868;53.398;6.564;2023-04-01T05:59:54;12.90;84.80
53962;DHT22;39868;53.398;6.564;2023-04-01T06:02:21;12.90;84.80
53962;DHT22;39868;53.398;6.564;2023-04-01T06:05:00;12.90;84.80
53962;DHT22;39868;53.398;6.564;2023-04-01T06:07:29;12.90;84.90
53962;DHT22;39868;53.398;6.564;2023-04-01T06:09:56;13.00;85.00
53962;DHT22;39868;53.398;6.564;2023-04-01T06:12:36;13.00;85.00
53962;DHT22;39868;53.398;6.564;2023-04-01T06:20:39;13.10;85.20
53962;DHT22;39868;53.398;6.564;2023-04-01T06:23:16;13.10;85.20
53962;DHT22;39868;53.398;6.564;2023-04-01T06:28:34;13.20;85.40
53962;DHT22;39868;53.398;6.564;2023-04-01T06:31:19;13.30;85.40
53962;DHT22;39868;53.398;6.564;2023-04-01T06:39:19;13.40;85.50
53962;DHT22;39868;53.398;6.564;2023-04-01T06:50:11;13.40;85.30
53962;DHT22;39868;53.398;6.564;2023-04-01T06:55:46;13.50;85.40
53962;DHT22;39868;53.398;6.564;2023-04-01T06:58:54;13.50;85.40
53962;DHT22;39868;53.398;6.564;2023-04-01T07:01:30;13.50;85.40
53962;DHT22;39868;53.398;6.564;2023-04-01T07:04:01;13.50;85.30
53962;DHT22;39868;53.398;6.564;2023-04-01T07:09:05;13.60;85.40
53962;DHT22;39868;53.398;6.564;2023-04-01T07:11:52;13.60;84.80
53962;DHT22;39868;53.398;6.564;2023-04-01T07:14:41;13.50;84.80
53962;DHT22;39868;53.398;6.564;2023-04-01T07:17:12;13.50;84.60
53962;DHT22;39868;53.398;6.564;2023-04-01T07:19:52;13.60;84.60
53962;DHT22;39868;53.398;6.564;2023-04-01T07:22:34;13.60;84.70
53962;DHT22;39868;53.398;6.564;2023-04-01T07:25:34;13.60;84.70
53962;DHT22;39868;53.398;6.564;2023-04-01T07:28:31;13.60;84.60
53962;DHT22;39868;53.398;6.564;2023-04-01T07:34:12;13.70;84.70
53962;DHT22;39868;53.398;6.564;2023-04-01T07:36:56;13.70;84.80
53962;DHT22;39868;53.398;6.564;2023-04-01T07:47:45;13.70;84.50
53962;DHT22;39868;53.398;6.564;2023-04-01T07:50:27;13.70;84.40
53962;DHT22;39868;53.398;6.564;2023-04-01T08:00:54;13.70;84.40
53962;DHT22;39868;53.398;6.564;2023-04-01T08:06:19;13.70;83.70
53962;DHT22;39868;53.398;6.564;2023-04-01T08:11:57;13.60;83.10
53962;DHT22;39868;53.398;6.564;2023-04-01T08:14:48;13.60;82.90
53962;DHT22;39868;53.398;6.564;2023-04-01T08:22:58;13.70;83.10
53962;DHT22;39868;53.398;6.564;2023-04-01T08:25:33;13.80;83.30
53962;DHT22;39868;53.398;6.564;2023-04-01T08:28:09;13.80;83.40
53962;DHT22;39868;53.398;6.564;2023-04-01T08:30:42;13.90;83.60
53962;DHT22;39868;53.398;6.564;2023-04-01T08:33:16;13.90;83.30
53962;DHT22;39868;53.398;6.564;2023-04-01T08:38:42;14.00;82.40
53962;DHT22;39868;53.398;6.564;2023-04-01T08:41:49;14.00;82.10
53962;DHT22;39868;53.398;6.564;2023-04-01T08:47:33;14.00;82.20
53962;DHT22;39868;53.398;6.564;2023-04-01T08:53:06;14.00;81.70
53962;DHT22;39868;53.398;6.564;2023-04-01T09:18:00;14.20;80.60
53962;DHT22;39868;53.398;6.564;2023-04-01T09:25:31;13.90;79.80
53962;DHT22;39868;53.398;6.564;2023-04-01T09:35:42;13.50;79.70
53962;DHT22;39868;53.398;6.564;2023-04-01T09:43:27;13.30;80.50
53962;DHT22;39868;53.398;6.564;2023-04-01T09:48:37;13.30;80.50
53962;DHT22;39868;53.398;6.564;2023-04-01T09:54:13;13.30;80.20
53962;DHT22;39868;53.398;6.564;2023-04-01T10:10:15;13.30;80.50
53962;DHT22;39868;53.398;6.564;2023-04-01T10:15:36;13.30;80.30
53962;DHT22;39868;53.398;6.564;2023-04-01T10:20:54;13.30;79.30
53962;DHT22;39868;53.398;6.564;2023-04-01T10:34:56;13.10;79.50
53962;DHT22;39868;53.398;6.564;2023-04-01T10:37:27;13.00;79.30
53962;DHT22;39868;53.398;6.564;2023-04-01T10:44:01;12.90;79.60
53962;DHT22;39868;53.398;6.564;2023-04-01T10:54:13;12.80;79.90
53962;DHT22;39868;53.398;6.564;2023-04-01T11:06:27;13.10;80.00
53962;DHT22;39868;53.398;6.564;2023-04-01T11:21:59;13.40;78.80
53962;DHT22;39868;53.398;6.564;2023-04-01T11:45:13;13.70;78.00
53962;DHT22;39868;53.398;6.564;2023-04-01T11:50:23;13.70;78.20
53962;DHT22;39868;53.398;6.564;2023-04-01T11:52:56;13.70;77.60
53962;DHT22;39868;53.398;6.564;2023-04-01T12:00:47;13.70;77.00
53962;DHT22;39868;53.398;6.564;2023-04-01T12:11:42;13.50;76.60
53962;DHT22;39868;53.398;6.564;2023-04-01T12:14:20;13.50;76.60
53962;DHT22;39868;53.398;6.564;2023-04-01T12:16:52;13.50;76.60
53962;DHT22;39868;53.398;6.564;2023-04-01T12:22:10;13.40;76.50
53962;DHT22;39868;53.398;6.564;2023-04-01T12:38:05;13.20;76.90
53962;DHT22;39868;53.398;6.564;2023-04-01T12:46:02;13.20;76.70
53962;DHT22;39868;53.398;6.564;2023-04-01T13:02:01;13.20;76.40
53962;DHT22;39868;53.398;6.564;2023-04-01T13:07:22;13.10;76.80
53962;DHT22;39868;53.398;6.564;2023-04-01T13:12:29;13.20;76.30
53962;DHT22;39868;53.398;6.564;2023-04-01T13:20:16;13.10;76.10
53962;DHT22;39868;53.398;6.564;2023-04-01T13:25:39;13.10;76.50
53962;DHT22;39868;53.398;6.564;2023-04-01T13:33:16;13.10;75.60
53962;DHT22;39868;53.398;6.564;2023-04-01T13:43:22;13.00;75.80
53962;DHT22;39868;53.398;6.564;2023-04-01T13:51:06;12.90;75.90
53962;DHT22;39868;53.398;6.564;2023-04-01T13:56:04;12.80;75.00
53962;DHT22;39868;53.398;6.564;2023-04-01T14:01:19;12.70;75.60
53962;DHT22;39868;53.398;6.564;2023-04-01T14:06:52;12.60;75.70
53962;DHT22;39868;53.398;6.564;2023-04-01T14:22:55;12.40;75.70
53962;DHT22;39868;53.398;6.564;2023-04-01T14:28:25;12.30;76.10
53962;DHT22;39868;53.398;6.564;2023-04-01T14:39:23;12.10;76.00
53962;DHT22;39868;53.398;6.564;2023-04-01T14:41:54;12.10;75.60
53962;DHT22;39868;53.398;6.564;2023-04-01T14:44:18;12.00;75.90
53962;DHT22;39868;53.398;6.564;2023-04-01T14:47:08;11.90;75.80
53962;DHT22;39868;53.398;6.564;2023-04-01T14:52:24;11.80;75.90
53962;DHT22;39868;53.398;6.564;2023-04-01T14:54:54;11.70;76.00
53962;DHT22;39868;53.398;6.564;2023-04-01T14:57:26;11.60;76.10
53962;DHT22;39868;53.398;6.564;2023-04-01T14:59:59;11.60;76.40
53962;DHT22;39868;53.398;6.564;2023-04-01T15:13:20;11.40;76.60
53962;DHT22;39868;53.398;6.564;2023-04-01T15:39:24;10.90;76.80
53962;DHT22;39868;53.398;6.564;2023-04-01T15:42:16;10.80;76.70
53962;DHT22;39868;53.398;6.564;2023-04-01T15:52:43;10.60;76.90
53962;DHT22;39868;53.398;6.564;2023-04-01T15:58:00;10.60;77.30
53962;DHT22;39868;53.398;6.564;2023-04-01T16:00:29;10.60;77.30
53962;DHT22;39868;53.398;6.564;2023-04-01T16:03:07;10.50;77.30
53962;DHT22;39868;53.398;6.564;2023-04-01T16:05:38;10.50;77.30
53962;DHT22;39868;53.398;6.564;2023-04-01T16:08:12;10.50;77.10
53962;DHT22;39868;53.398;6.564;2023-04-01T16:10:48;10.50;77.20
53962;DHT22;39868;53.398;6.564;2023-04-01T16:21:19;10.30;77.40
53962;DHT22;39868;53.398;6.564;2023-04-01T16:23:50;10.30;77.40
53962;DHT22;39868;53.398;6.564;2023-04-01T16:26:19;10.30;77.40
53962;DHT22;39868;53.398;6.564;2023-04-01T16:31:51;10.20;77.50
53962;DHT22;39868;53.398;6.564;2023-04-01T16:34:38;10.20;77.70
53962;DHT22;39868;53.398;6.564;2023-04-01T16:37:10;10.20;77.70
53962;DHT22;39868;53.398;6.564;2023-04-01T16:42:35;10.10;77.70
53962;DHT22;39868;53.398;6.564;2023-04-01T16:45:21;10.10;77.70
53962;DHT22;39868;53.398;6.564;2023-04-01T16:47:55;10.10;77.70
53962;DHT22;39868;53.398;6.564;2023-04-01T16:50:28;10.00;77.60
53962;DHT22;39868;53.398;6.564;2023-04-01T16:53:08;10.00;77.60
53962;DHT22;39868;53.398;6.564;2023-04-01T16:58:08;10.00;77.80
53962;DHT22;39868;53.398;6.564;2023-04-01T17:01:11;9.90;78.40
53962;DHT22;39868;53.398;6.564;2023-04-01T17:14:43;9.80;78.20
53962;DHT22;39868;53.398;6.564;2023-04-01T17:19:51;9.70;78.40
53962;DHT22;39868;53.398;6.564;2023-04-01T17:22:25;9.60;78.50
53962;DHT22;39868;53.398;6.564;2023-04-01T17:25:08;9.70;78.50
53962;DHT22;39868;53.398;6.564;2023-04-01T17:27:48;9.60;78.40
53962;DHT22;39868;53.398;6.564;2023-04-01T17:30:22;9.60;78.50
53962;DHT22;39868;53.398;6.564;2023-04-01T17:32:54;9.60;78.50
53962;DHT22;39868;53.398;6.564;2023-04-01T17:36:08;9.60;78.60
53962;DHT22;39868;53.398;6.564;2023-04-01T17:49:05;9.50;78.80
53962;DHT22;39868;53.398;6.564;2023-04-01T17:51:51;9.40;78.70
53962;DHT22;39868;53.398;6.564;2023-04-01T17:59:54;9.40;78.60
53962;DHT22;39868;53.398;6.564;2023-04-01T18:10:29;9.40;78.80
53962;DHT22;39868;53.398;6.564;2023-04-01T18:13:07;9.30;78.60
53962;DHT22;39868;53.398;6.564;2023-04-01T18:23:41;9.30;78.50
53962;DHT22;39868;53.398;6.564;2023-04-01T18:26:35;9.30;78.50
53962;DHT22;39868;53.398;6.564;2023-04-01T18:30:06;9.20;78.30
53962;DHT22;39868;53.398;6.564;2023-04-01T18:39:41;9.20;78.20
53962;DHT22;39868;53.398;6.564;2023-04-01T18:44:57;9.10;78.20
53962;DHT22;39868;53.398;6.564;2023-04-01T18:47:32;9.10;78.30
53962;DHT22;39868;53.398;6.564;2023-04-01T18:52:56;9.00;78.20
53962;DHT22;39868;53.398;6.564;2023-04-01T18:55:30;9.00;78.20
53962;DHT22;39868;53.398;6.564;2023-04-01T19:03:27;9.00;78.00
53962;DHT22;39868;53.398;6.564;2023-04-01T19:05:59;8.90;78.00
53962;DHT22;39868;53.398;6.564;2023-04-01T19:08:32;8.90;78.10
53962;DHT22;39868;53.398;6.564;2023-04-01T19:21:39;8.80;78.00
53962;DHT22;39868;53.398;6.564;2023-04-01T19:24:13;8.80;78.00
53962;DHT22;39868;53.398;6.564;2023-04-01T19:26:49;8.80;78.00
53962;DHT22;39868;53.398;6.564;2023-04-01T19:31:59;8.70;78.00
53962;DHT22;39868;53.398;6.564;2023-04-01T19:34:35;8.70;77.90
53962;DHT22;39868;53.398;6.564;2023-04-01T19:37:08;8.70;77.90
53962;DHT22;39868;53.398;6.564;2023-04-01T19:47:34;8.60;77.80
53962;DHT22;39868;53.398;6.564;2023-04-01T19:52:50;8.60;78.00
53962;DHT22;39868;53.398;6.564;2023-04-01T19:55:37;8.60;77.80
53962;DHT22;39868;53.398;6.564;2023-04-01T20:00:43;8.50;77.70
53962;DHT22;39868;53.398;6.564;2023-04-01T20:03:13;8.50;77.70
53962;DHT22;39868;53.398;6.564;2023-04-01T20:05:51;8.50;77.60
53962;DHT22;39868;53.398;6.564;2023-04-01T20:16:07;8.50;77.60
53962;DHT22;39868;53.398;6.564;2023-04-01T20:18:46;8.50;77.60
53962;DHT22;39868;53.398;6.564;2023-04-01T20:21:28;8.50;77.50
53962;DHT22;39868;53.398;6.564;2023-04-01T20:24:17;8.50;77.30
53962;DHT22;39868;53.398;6.564;2023-04-01T20:27:07;8.40;77.10
53962;DHT22;39868;53.398;6.564;2023-04-01T20:35:08;8.40;77.00
53962;DHT22;39868;53.398;6.564;2023-04-01T20:40:37;8.30;77.10
53962;DHT22;39868;53.398;6.564;2023-04-01T20:50:50;8.20;76.80
53962;DHT22;39868;53.398;6.564;2023-04-01T21:18:41;8.20;76.60
53962;DHT22;39868;53.398;6.564;2023-04-01T21:23:42;8.10;76.20
53962;DHT22;39868;53.398;6.564;2023-04-01T21:34:02;8.00;76.00
53962;DHT22;39868;53.398;6.564;2023-04-01T21:36:43;8.00;76.10
53962;DHT22;39868;53.398;6.564;2023-04-01T21:42:07;8.00;75.90
53962;DHT22;39868;53.398;6.564;2023-04-01T21:47:47;7.90;76.00
53962;DHT22;39868;53.398;6.564;2023-04-01T21:58:20;7.80;75.50
53962;DHT22;39868;53.398;6.564;2023-04-01T22:08:51;7.70;75.40
53962;DHT22;39868;53.398;6.564;2023-04-01T22:11:30;7.70;76.00
53962;DHT22;39868;53.398;6.564;2023-04-01T22:14:03;7.60;75.20
53962;DHT22;39868;53.398;6.564;2023-04-01T22:16:37;7.60;75.30
53962;DHT22;39868;53.398;6.564;2023-04-01T22:19:12;7.60;75.10
53962;DHT22;39868;53.398;6.564;2023-04-01T22:22:18;7.50;75.10
53962;DHT22;39868;53.398;6.564;2023-04-01T22:27:55;7.40;75.10
53962;DHT22;39868;53.398;6.564;2023-04-01T22:30:19;7.40;75.20
53962;DHT22;39868;53.398;6.564;2023-04-01T22:33:02;7.30;75.20
53962;DHT22;39868;53.398;6.564;2023-04-01T22:36:20;7.30;75.10
53962;DHT22;39868;53.398;6.564;2023-04-01T22:38:23;7.20;74.90
53962;DHT22;39868;53.398;6.564;2023-04-01T22:43:37;7.20;74.90
53962;DHT22;39868;53.398;6.564;2023-04-01T22:49:05;7.10;75.00
53962;DHT22;39868;53.398;6.564;2023-04-01T22:51:40;7.10;75.10
53962;DHT22;39868;53.398;6.564;2023-04-01T22:54:19;7.00;75.10
53962;DHT22;39868;53.398;6.564;2023-04-01T22:56:56;7.00;74.90
53962;DHT22;39868;53.398;6.564;2023-04-01T23:04:41;6.90;75.10
53962;DHT22;39868;53.398;6.564;2023-04-01T23:09:48;6.80;75.10
53962;DHT22;39868;53.398;6.564;2023-04-01T23:12:16;6.80;75.20
53962;DHT22;39868;53.398;6.564;2023-04-01T23:14:50;6.70;75.20
53962;DHT22;39868;53.398;6.564;2023-04-01T23:27:43;6.60;75.20
53962;DHT22;39868;53.398;6.564;2023-04-01T23:33:09;6.60;75.10
53962;DHT22;39868;53.398;6.564;2023-04-01T23:36:11;6.60;75.20
53962;DHT22;39868;53.398;6.564;2023-04-01T23:38:36;6.60;75.10
53962;DHT22;39868;53.398;6.564;2023-04-01T23:41:05;6.50;75.10
53962;DHT22;39868;53.398;6.564;2023-04-01T23:43:33;6.50;75.00
53962;DHT22;39868;53.398;6.564;2023-04-01T23:46:03;6.50;74.90
53962;DHT22;39868;53.398;6.564;2023-04-01T23:48:31;6.40;74.80
53962;DHT22;39868;53.398;6.564;2023-04-01T23:50:59;6.40;74.80
53962;DHT22;39868;53.398;6.564;2023-04-01T23:53:33;6.40;74.80
53962;DHT22;39868;53.398;6.564;2023-04-01T23:56:01;6.40;74.70
